Skip to main content

DAAC Home > Get Data > Field Campaigns > CARVE > Data Files

CARVE: L1 Daily Flight Path Geolocation and Aircraft Position Data, Alaska, 2012-2015

Data Set Overview

Data setCARVE: L1 Daily Flight Path Geolocation and Aircraft Position Data, Alaska, 2012-2015
DOI10.3334/ORNLDAAC/1425
Release date2017-02-24
ProjectCarbon in Arctic Reservoirs Vulnerability Experiment
Time Period2012-05-22 to 2015-11-14

Description

This data set provides high-frequency geolocation, time, height, pitch, roll, and heading information for the C-23 Sherpa aircraft during airborne campaigns over the Alaskan and Canadian Arctic as part of the Carbon in Arctic Reservoirs Vulnerability Experiment (CARVE). The data were collected in situ using the Digital Air Data System (DADS) onboard the aircraft and are presented at 1-second intervals throughout each flight. Flight campaigns took place from 2012 to 2015 between the months of March and November to enable investigation of both seasonal and inter-annual variability in atmospheric gas content. The measurements included in this data set are useful for matching aircraft position with the scientific data collected by other CARVE airborne instruments.

Documentation

Data set reference document

Citation

CARVE Science Team . 2017. CARVE: L1 Daily Flight Path Geolocation and Aircraft Position Data, Alaska, 2012-2015. ORNL DAAC, Oak Ridge, Tennessee, USA. http://dx.doi.org/10.3334/ORNLDAAC/1425
Download citation from Datacite
RISBibTexOther
Crosscite Citation Formatter

See our Data Citations and Acknowledgements policy for more information.

Project

Carbon in Arctic Reservoirs Vulnerability Experiment: The Carbon in Arctic Reservoirs Vulnerability Experiment (CARVE) is a NASA Earth System Science Pathfinder Mission. From 2011 to 2015, CARVE collected airborne measurements of atmospheric carbon dioxide, methane, and carbon monoxide and relevant land surface parameters in the Alaskan Arctic. Continuous ground-based measurements provide temporal and regional context as well as calibration for CARVE airborne measurements. CARVE provides an integrated set of greenhouse gas data that provides experimental insights into Arctic carbon cycling.

Project data set list for Carbon in Arctic Reservoirs Vulnerability Experiment.

Companion Files

Sign In above to download companion files.

  • CARVE_L1_FlightPath.pdf
  • CARVE_L1_FlightPath_Fig1.png

Data Files

Sign In above to download data set files.

Data File (Granule)File SizeDatesLatitudeLongitude
carve_DADS_L1_b23_20120523_20150621190727.nc 17.9 MB 2012-05-23 - 2012-05-24 71.43N To 64.75N147.53W To 157.42W
carve_DADS_L1_b23_20120524_20150621190929.nc 8.2 MB 2012-05-24 68.61N To 64.80N147.49W To 153.72W
carve_DADS_L1_b23_20120527_20150621191133.nc 16.0 MB 2012-05-27 - 2012-05-28 65.18N To 62.92N147.50W To 161.05W
carve_DADS_L1_b23_20120528_20150621191335.nc 15.9 MB 2012-05-28 - 2012-05-29 65.03N To 62.85N147.57W To 159.23W
carve_DADS_L1_b23_20120530_20150621191539.nc 8.9 MB 2012-05-30 65.35N To 63.86N146.25W To 149.34W
carve_DADS_L1_b23_20120601_20150621192327.nc 18.3 MB 2012-06-01 - 2012-06-02 71.30N To 64.69N147.85W To 157.41W
carve_DADS_L1_b23_20120618_20150621192529.nc 17.5 MB 2012-06-18 - 2012-06-19 71.40N To 64.78N147.52W To 157.42W
carve_DADS_L1_b23_20120619_20150621192732.nc 15.5 MB 2012-06-19 - 2012-06-20 70.31N To 64.74N147.43W To 151.10W
carve_DADS_L1_b23_20120621_20150621192936.nc 14.9 MB 2012-06-21 - 2012-06-22 65.02N To 62.92N147.58W To 158.75W
carve_DADS_L1_b23_20120622_20150621193138.nc 18.2 MB 2012-06-22 - 2012-06-23 71.56N To 64.80N147.57W To 157.41W
carve_DADS_L1_b23_20120624_20150621193342.nc 9.5 MB 2012-06-24 65.29N To 63.87N145.71W To 149.38W
carve_DADS_L1_b23_20120717_20150621193544.nc 12.4 MB 2012-07-17 - 2012-07-18 66.97N To 64.15N144.18W To 150.90W
carve_DADS_L1_b23_20120722_20150621193746.nc 17.2 MB 2012-07-22 - 2012-07-23 71.44N To 64.80N147.50W To 157.42W
carve_DADS_L1_b23_20120724_20150621193950.nc 9.8 MB 2012-07-24 - 2012-07-25 66.91N To 64.34N145.12W To 149.85W
carve_DADS_L1_b23_20120725_20150621194152.nc 16.2 MB 2012-07-25 - 2012-07-26 65.03N To 62.62N147.58W To 160.23W
carve_DADS_L1_b23_20120814_20150621194355.nc 18.9 MB 2012-08-14 - 2012-08-15 65.01N To 60.75N147.54W To 164.14W
carve_DADS_L1_b23_20120818_20150621194558.nc 6.9 MB 2012-08-18 - 2012-08-19 65.19N To 64.10N147.58W To 156.32W
carve_DADS_L1_b23_20120819_20150621194801.nc 14.1 MB 2012-08-19 - 2012-08-20 71.29N To 64.80N147.58W To 157.46W
carve_DADS_L1_b23_20120820_20150621195005.nc 8.1 MB 2012-08-20 67.06N To 64.80N143.91W To 149.01W
carve_DADS_L1_b23_20120821_20150621195207.nc 15.1 MB 2012-08-21 - 2012-08-22 65.40N To 62.93N147.85W To 158.56W
carve_DADS_L1_b23_20120822_20150621195409.nc 8.7 MB 2012-08-22 66.73N To 64.79N143.66W To 149.34W
carve_DADS_L1_b23_20120823_20150621195613.nc 15.6 MB 2012-08-23 - 2012-08-24 71.30N To 64.80N147.58W To 157.50W
carve_DADS_L1_b23_20120918_20150621195815.nc 4.4 MB 2012-09-18 65.19N To 64.53N147.55W To 149.53W
carve_DADS_L1_b23_20120918_20150621200017.nc 7.2 MB 2012-09-18 - 2012-09-19 67.20N To 64.80N143.57W To 149.51W
carve_DADS_L1_b23_20120919_20150621200220.nc 14.3 MB 2012-09-19 - 2012-09-20 71.29N To 64.80N146.29W To 156.86W
carve_DADS_L1_b23_20120921_20150621200426.nc 8.4 MB 2012-09-21 - 2012-09-22 67.11N To 64.44N145.86W To 149.72W
carve_DADS_L1_b23_20120922_20150621200628.nc 9.0 MB 2012-09-22 66.32N To 64.40N144.54W To 150.21W
carve_DADS_L1_b23_20120923_20150621200830.nc 7.7 MB 2012-09-23 67.02N To 64.95N143.69W To 149.55W
carve_DADS_L1_b23_20120924_20150621201032.nc 19.8 MB 2012-09-24 - 2012-09-25 65.04N To 60.31N147.47W To 164.50W
carve_DADS_L1_b23_20120926_20150621201236.nc 20.8 MB 2012-09-26 - 2012-09-27 64.96N To 60.21N147.73W To 164.44W
carve_DADS_L1_b23_20121001_20150621201447.nc 21.0 MB 2012-10-01 - 2012-10-02 71.32N To 64.80N147.58W To 160.10W
carve_DADS_L1_b23_20130402_20150621204854.nc 6.1 MB 2013-04-02 - 2013-04-03 65.04N To 64.32N147.58W To 149.82W
carve_DADS_L1_b23_20130403_20150621205056.nc 12.9 MB 2013-04-03 - 2013-04-04 66.00N To 63.61N147.59W To 158.46W
carve_DADS_L1_b23_20130404_20150621205258.nc 16.4 MB 2013-04-04 - 2013-04-05 71.31N To 64.80N147.59W To 157.55W
carve_DADS_L1_b23_20130405_20150621205502.nc 7.2 MB 2013-04-05 66.63N To 64.80N144.03W To 149.56W
carve_DADS_L1_b23_20130406_20150621205704.nc 15.9 MB 2013-04-06 - 2013-04-07 65.01N To 60.30N147.59W To 164.30W
carve_DADS_L1_b23_20130502_20150621205908.nc 12.7 MB 2013-05-02 - 2013-05-03 65.89N To 63.49N147.58W To 158.53W
carve_DADS_L1_b23_20130504_20150621210111.nc 16.7 MB 2013-05-04 - 2013-05-05 65.02N To 60.32N147.70W To 164.30W
carve_DADS_L1_b23_20130506_20150621210313.nc 14.3 MB 2013-05-06 - 2013-05-07 67.20N To 64.53N141.69W To 152.20W
carve_DADS_L1_b23_20130507_20150621210515.nc 13.9 MB 2013-05-07 - 2013-05-08 70.45N To 64.75N145.65W To 152.01W
carve_DADS_L1_b23_20130508_20150621210719.nc 17.2 MB 2013-05-08 - 2013-05-09 65.05N To 60.30N147.58W To 164.30W
carve_DADS_L1_b23_20130509_20150621210921.nc 14.7 MB 2013-05-09 - 2013-05-10 71.30N To 64.80N147.56W To 157.49W
carve_DADS_L1_b23_20130510_20150621211123.nc 13.8 MB 2013-05-10 - 2013-05-11 66.60N To 63.25N147.57W To 158.49W
carve_DADS_L1_b23_20130513_20150621211325.nc 12.8 MB 2013-05-13 - 2013-05-14 66.49N To 63.00N147.59W To 158.76W
carve_DADS_L1_b23_20130602_20150621211529.nc 18.1 MB 2013-06-02 - 2013-06-03 66.94N To 63.49N147.57W To 160.81W
carve_DADS_L1_b23_20130603_20150621211731.nc 7.5 MB 2013-06-03 66.67N To 64.68N142.55W To 147.97W
carve_DADS_L1_b23_20130606_20150621211934.nc 15.3 MB 2013-06-06 - 2013-06-07 71.29N To 64.80N147.51W To 159.85W
carve_DADS_L1_b23_20130607_20150621212138.nc 16.3 MB 2013-06-07 - 2013-06-08 65.04N To 60.39N147.58W To 163.42W
carve_DADS_L1_b23_20130608_20150621212340.nc 19.6 MB 2013-06-08 - 2013-06-09 65.04N To 60.33N147.55W To 164.32W
carve_DADS_L1_b23_20130609_20150621212542.nc 13.7 MB 2013-06-09 - 2013-06-10 65.46N To 62.94N147.53W To 158.50W
carve_DADS_L1_b23_20130611_20150621212749.nc 16.9 MB 2013-06-11 - 2013-06-12 71.38N To 64.75N147.43W To 157.41W
carve_DADS_L1_b23_20130703_20150621212949.nc 8.4 MB 2013-07-03 66.91N To 64.76N143.30W To 149.54W
carve_DADS_L1_b23_20130704_20150621213152.nc 7.6 MB 2013-07-04 65.08N To 63.89N147.58W To 151.35W
carve_DADS_L1_b23_20130705_20150621213356.nc 17.1 MB 2013-07-05 - 2013-07-06 71.32N To 64.80N147.58W To 157.41W
carve_DADS_L1_b23_20130707_20150621213801.nc 16.4 MB 2013-07-07 - 2013-07-08 71.33N To 64.91N147.50W To 157.54W
carve_DADS_L1_b23_20130709_20150621214004.nc 16.5 MB 2013-07-09 - 2013-07-10 66.54N To 64.46N147.84W To 167.60W
carve_DADS_L1_b23_20130711_20150621214206.nc 16.2 MB 2013-07-11 - 2013-07-12 65.02N To 60.26N147.57W To 164.33W
carve_DADS_L1_b23_20130712_20150621214409.nc 14.3 MB 2013-07-12 - 2013-07-13 66.63N To 62.91N147.58W To 158.83W
carve_DADS_L1_b23_20130802_20150621214613.nc 13.9 MB 2013-08-02 - 2013-08-03 70.26N To 64.79N147.49W To 152.22W
carve_DADS_L1_b23_20130803_20150621214815.nc 13.6 MB 2013-08-03 - 2013-08-04 67.02N To 63.90N145.06W To 150.68W
carve_DADS_L1_b23_20130804_20150621215017.nc 4.8 MB 2013-08-04 66.37N To 64.80N147.34W To 149.57W
carve_DADS_L1_b23_20130807_20150621215221.nc 17.3 MB 2013-08-07 - 2013-08-08 65.08N To 62.92N147.54W To 160.85W
carve_DADS_L1_b23_20130811_20150621215423.nc 14.1 MB 2013-08-11 - 2013-08-12 70.59N To 64.80N147.58W To 157.55W
carve_DADS_L1_b23_20130812_20150621215625.nc 17.5 MB 2013-08-12 - 2013-08-13 64.89N To 62.95N147.76W To 158.88W
carve_DADS_L1_b23_20130813_20150621215827.nc 16.7 MB 2013-08-13 - 2013-08-14 66.74N To 64.45N147.58W To 168.11W
carve_DADS_L1_b23_20130905_20150621220031.nc 7.9 MB 2013-09-05 66.78N To 64.80N144.06W To 149.41W
carve_DADS_L1_b23_20130906_20150621220233.nc 15.9 MB 2013-09-06 - 2013-09-07 65.03N To 62.95N147.56W To 160.95W
carve_DADS_L1_b23_20130907_20150621220436.nc 17.0 MB 2013-09-07 - 2013-09-08 64.96N To 60.32N147.55W To 164.21W
carve_DADS_L1_b23_20130910_20150621220640.nc 8.4 MB 2013-09-10 65.40N To 64.64N147.56W To 150.86W
carve_DADS_L1_b23_20130912_20150621220842.nc 8.0 MB 2013-09-12 65.22N To 64.35N147.56W To 152.71W
carve_DADS_L1_b23_20131024_20150621221044.nc 16.3 MB 2013-10-24 - 2013-10-25 70.52N To 64.80N147.56W To 157.41W
carve_DADS_L1_b23_20131025_20150621221248.nc 7.5 MB 2013-10-25 65.35N To 64.19N147.56W To 150.77W
carve_DADS_L1_b23_20131026_20150621221450.nc 7.7 MB 2013-10-26 65.03N To 63.35N147.80W To 153.20W
carve_DADS_L1_b23_20131027_20150621221652.nc 13.0 MB 2013-10-27 - 2013-10-28 67.01N To 62.93N144.86W To 155.45W
carve_DADS_L1_b23_20140503_20150621231953.nc 16.7 MB 2014-05-03 - 2014-05-04 65.03N To 60.31N147.58W To 164.26W
carve_DADS_L1_b23_20140522_20150621232359.nc 15.8 MB 2014-05-22 - 2014-05-23 66.05N To 64.45N147.58W To 167.66W
carve_DADS_L1_b23_20140523_20150621232601.nc 15.9 MB 2014-05-23 - 2014-05-24 65.03N To 62.99N147.57W To 159.59W
carve_DADS_L1_b23_20140524_20150621232803.nc 9.0 MB 2014-05-24 65.04N To 62.93N147.54W To 154.40W
carve_DADS_L1_b23_20140526_20150621233006.nc 14.3 MB 2014-05-26 - 2014-05-27 66.95N To 63.00N143.61W To 154.39W
carve_DADS_L1_b23_20140529_20150621233210.nc 8.8 MB 2014-05-29 65.48N To 62.99N147.58W To 154.40W
carve_DADS_L1_b23_20140603_20150621233412.nc 15.9 MB 2014-06-03 - 2014-06-04 64.84N To 60.31N147.84W To 164.28W
carve_DADS_L1_b23_20140604_20150621233616.nc 7.4 MB 2014-06-04 67.08N To 64.80N147.57W To 151.96W
carve_DADS_L1_b23_20140607_20150621233818.nc 13.4 MB 2014-06-07 - 2014-06-08 65.17N To 62.81N147.57W To 155.53W
carve_DADS_L1_b23_20140609_20150621234020.nc 15.9 MB 2014-06-09 - 2014-06-10 68.85N To 64.74N133.08W To 148.07W
carve_DADS_L1_b23_20140611_20150621234222.nc 14.9 MB 2014-06-11 - 2014-06-12 64.85N To 60.32N147.82W To 164.33W
carve_DADS_L1_b23_20140612_20150621234426.nc 15.4 MB 2014-06-12 - 2014-06-13 65.92N To 64.48N147.58W To 165.47W
carve_DADS_L1_b23_20140613_20150621234629.nc 13.3 MB 2014-06-13 70.52N To 64.80N147.57W To 157.42W
carve_DADS_L1_b23_20140614_20150621234837.nc 12.3 MB 2014-06-14 70.27N To 64.85N147.54W To 151.96W
carve_DADS_L1_b23_20140703_20150621235035.nc 16.1 MB 2014-07-03 - 2014-07-04 65.02N To 60.29N147.58W To 164.29W
carve_DADS_L1_b23_20140704_20150621235240.nc 16.7 MB 2014-07-04 - 2014-07-05 71.04N To 64.81N147.58W To 157.41W
carve_DADS_L1_b23_20140705_20150621235442.nc 17.8 MB 2014-07-05 - 2014-07-06 71.36N To 64.81N147.58W To 157.98W
carve_DADS_L1_b23_20140706_20150621235644.nc 13.2 MB 2014-07-06 - 2014-07-07 65.02N To 62.98N147.58W To 160.84W
carve_DADS_L1_b23_20140710_20150621235846.nc 15.1 MB 2014-07-10 - 2014-07-11 69.44N To 64.80N131.75W To 147.89W
carve_DADS_L1_b23_20140711_20150622000050.nc 15.4 MB 2014-07-11 - 2014-07-12 69.21N To 64.79N133.01W To 147.96W
carve_DADS_L1_b23_20140712_20150622000252.nc 7.9 MB 2014-07-12 65.16N To 62.73N147.58W To 155.09W
carve_DADS_L1_b23_20140806_20150622000455.nc 6.5 MB 2014-08-06 67.10N To 64.73N147.76W To 151.91W
carve_DADS_L1_b23_20140809_20150622000659.nc 12.5 MB 2014-08-09 - 2014-08-10 65.03N To 62.99N147.57W To 160.85W
carve_DADS_L1_b23_20140810_20150622000901.nc 14.6 MB 2014-08-10 - 2014-08-11 66.99N To 63.00N147.57W To 159.07W
carve_DADS_L1_b23_20140811_20150622001105.nc 7.2 MB 2014-08-11 67.04N To 64.81N145.07W To 149.16W
carve_DADS_L1_b23_20140812_20150622001307.nc 7.6 MB 2014-08-12 64.94N To 63.00N147.61W To 154.40W
carve_DADS_L1_b23_20140813_20150622001509.nc 7.7 MB 2014-08-13 65.25N To 64.10N147.57W To 155.54W
carve_DADS_L1_b23_20140814_20150622001712.nc 8.2 MB 2014-08-14 - 2014-08-15 65.02N To 62.85N147.58W To 154.90W
carve_DADS_L1_b23_20140903_20150622001914.nc 7.2 MB 2014-09-03 67.05N To 64.78N145.40W To 149.09W
carve_DADS_L1_b23_20140904_20150622002118.nc 15.9 MB 2014-09-04 - 2014-09-05 65.01N To 60.30N147.58W To 164.28W
carve_DADS_L1_b23_20140905_20150622002320.nc 13.3 MB 2014-09-05 - 2014-09-06 70.48N To 64.81N147.57W To 162.98W
carve_DADS_L1_b23_20140906_20150622002522.nc 15.6 MB 2014-09-06 - 2014-09-07 71.34N To 64.81N147.54W To 157.43W
carve_DADS_L1_b23_20140907_20150622002726.nc 13.7 MB 2014-09-07 - 2014-09-08 70.20N To 64.81N147.57W To 156.46W
carve_DADS_L1_b23_20140909_20150622002928.nc 15.7 MB 2014-09-09 - 2014-09-10 69.47N To 64.76N132.21W To 147.93W
carve_DADS_L1_b23_20140911_20150622003130.nc 12.5 MB 2014-09-11 65.02N To 63.01N147.58W To 154.46W
carve_DADS_L1_b23_20141002_20150622003334.nc 8.5 MB 2014-10-02 65.05N To 62.95N147.55W To 154.46W
carve_DADS_L1_b23_20141003_20150622003537.nc 14.3 MB 2014-10-03 - 2014-10-04 65.02N To 60.36N147.58W To 164.01W
carve_DADS_L1_b23_20141005_20150622003739.nc 13.1 MB 2014-10-05 - 2014-10-06 65.07N To 63.00N147.50W To 160.82W
carve_DADS_L1_b23_20141006_20150622003941.nc 14.1 MB 2014-10-06 - 2014-10-07 64.96N To 62.99N147.80W To 160.83W
carve_DADS_L1_b23_20141007_20150622004145.nc 14.1 MB 2014-10-07 - 2014-10-08 64.92N To 60.30N147.65W To 164.29W
carve_DADS_L1_b23_20141009_20150622004347.nc 17.7 MB 2014-10-09 - 2014-10-10 65.48N To 64.50N147.57W To 166.92W
carve_DADS_L1_b23_20141104_20150622004558.nc 6.4 MB 2014-11-04 - 2014-11-05 65.22N To 63.01N147.56W To 154.42W
carve_DADS_L1_b23_20141105_20150622004754.nc 11.0 MB 2014-11-05 - 2014-11-06 65.03N To 63.00N147.56W To 160.82W
carve_DADS_L1_b23_20141106_20150622004956.nc 15.1 MB 2014-11-06 - 2014-11-07 65.02N To 60.29N147.58W To 164.31W
carve_DADS_L1_b23_20141107_20150622005158.nc 12.4 MB 2014-11-07 - 2014-11-08 70.55N To 64.80N147.58W To 157.41W
carve_DADS_L1_b23_20141108_20150622005402.nc 8.0 MB 2014-11-08 65.03N To 62.81N147.57W To 154.65W
carve_DADS_L1_b23_20141109_20150622005605.nc 8.5 MB 2014-11-09 65.21N To 63.79N147.57W To 152.23W
carve_DADS_L1_b23_20150409_20150622011057.nc 6.5 MB 2015-04-09 66.70N To 64.73N143.50W To 149.42W
carve_DADS_L1_b23_20150410_20150622011259.nc 13.2 MB 2015-04-10 - 2015-04-11 65.02N To 62.99N147.57W To 160.86W
carve_DADS_L1_b23_20150413_20150622011503.nc 15.1 MB 2015-04-13 - 2015-04-14 65.00N To 60.33N147.59W To 164.21W
carve_DADS_L1_b23_20150414_20150622011716.nc 14.8 MB 2015-04-14 - 2015-04-15 70.49N To 64.81N147.59W To 157.45W
carve_DADS_L1_b23_20150415_20150622011910.nc 6.9 MB 2015-04-15 65.00N To 62.93N147.59W To 154.53W
carve_DADS_L1_b23_20150502_20150622012112.nc 7.5 MB 2015-05-02 67.01N To 64.81N143.71W To 149.37W
carve_DADS_L1_b23_20150503_20150622012314.nc 6.4 MB 2015-05-03 65.02N To 62.81N147.59W To 154.93W
carve_DADS_L1_b23_20150504_20150622012518.nc 12.3 MB 2015-05-04 - 2015-05-05 64.85N To 63.00N147.82W To 160.85W
carve_DADS_L1_b23_20150505_20150622012720.nc 15.2 MB 2015-05-05 - 2015-05-06 64.85N To 60.30N147.82W To 164.47W
carve_DADS_L1_b23_20150506_20150622012922.nc 14.4 MB 2015-05-06 - 2015-05-07 65.99N To 62.99N147.84W To 160.88W
carve_DADS_L1_b23_20150511_20150622013127.nc 6.6 MB 2015-05-11 65.02N To 62.85N147.59W To 154.89W
carve_DADS_L1_b23_20150512_20150622013329.nc 7.1 MB 2015-05-12 66.59N To 64.79N147.60W To 155.87W
carve_DADS_L1_b23_20150513_20150622013531.nc 8.2 MB 2015-05-13 67.07N To 64.79N143.69W To 147.96W
carve_DADS_L1_b23_20150602_20150622013733.nc 14.1 MB 2015-06-02 - 2015-06-03 65.01N To 62.98N147.59W To 160.83W
carve_DADS_L1_b23_20150603_20150622013937.nc 16.9 MB 2015-06-03 - 2015-06-04 66.93N To 64.67N147.81W To 168.07W
carve_DADS_L1_b23_20150604_20150622014139.nc 15.2 MB 2015-06-04 - 2015-06-05 65.01N To 60.31N147.59W To 164.42W
carve_DADS_L1_b23_20150606_20150622014341.nc 14.2 MB 2015-06-06 - 2015-06-07 64.93N To 60.27N147.86W To 164.41W
carve_DADS_L1_b23_20150607_20150622014544.nc 16.3 MB 2015-06-07 - 2015-06-08 71.32N To 64.79N147.58W To 157.80W
carve_DADS_L1_b23_20150608_20150622014747.nc 7.2 MB 2015-06-08 67.02N To 64.81N143.72W To 148.47W
carve_DADS_L1_b23_20150610_20150622014950.nc 15.5 MB 2015-06-10 - 2015-06-11 69.27N To 64.73N133.13W To 148.10W
carve_DADS_L1_b23_20150612_20150622015154.nc 6.5 MB 2015-06-12 64.87N To 63.26N147.79W To 154.15W
carve_DADS_L1_b23_20150613_20150622015356.nc 7.6 MB 2015-06-13 67.02N To 64.68N143.69W To 149.24W
carve_DADS_L1_b23_20150614_20150622015600.nc 14.9 MB 2015-06-14 - 2015-06-15 65.01N To 62.98N147.59W To 160.82W
carve_DADS_L1_b23_20150615_20150622015802.nc 15.7 MB 2015-06-15 - 2015-06-16 70.25N To 64.81N147.59W To 156.03W
carve_DADS_L1_b23_20150703_20150705173448.nc 3.0 MB 2015-07-03 65.02N To 63.41N147.59W To 152.87W
carve_DADS_L1_b23_20150704_20150705204410.nc 12.7 MB 2015-07-04 - 2015-07-05 70.65N To 64.83N147.58W To 157.49W
carve_DADS_L1_b23_20150705_20150706173951.nc 13.2 MB 2015-07-05 - 2015-07-06 71.30N To 65.54N148.85W To 157.64W
carve_DADS_L1_b23_20150706_20150707204640.nc 14.6 MB 2015-07-06 - 2015-07-07 70.88N To 64.81N147.58W To 157.54W
carve_DADS_L1_b23_20150710_20150711182615.nc 17.0 MB 2015-07-10 - 2015-07-11 69.06N To 64.78N147.59W To 167.48W
carve_DADS_L1_b23_20150711_20150712191214.nc 15.6 MB 2015-07-11 - 2015-07-12 65.01N To 58.84N147.59W To 158.52W
carve_DADS_L1_b23_20150713_20150714152420.nc 8.0 MB 2015-07-13 67.07N To 64.78N143.51W To 150.00W
carve_DADS_L1_b23_20150714_20150715053104.nc 6.9 MB 2015-07-14 67.00N To 64.81N143.69W To 149.31W
carve_DADS_L1_b23_20150802_20150803171015.nc 14.1 MB 2015-08-02 - 2015-08-03 64.87N To 58.88N147.80W To 158.52W
carve_DADS_L1_b23_20150803_20150804170332.nc 6.9 MB 2015-08-03 65.03N To 62.94N147.58W To 154.48W
carve_DADS_L1_b23_20150804_20150805174843.nc 13.9 MB 2015-08-04 - 2015-08-05 65.01N To 60.29N147.58W To 164.29W
carve_DADS_L1_b23_20150805_20150806212647.nc 15.1 MB 2015-08-05 - 2015-08-06 65.02N To 63.00N147.58W To 158.77W
carve_DADS_L1_b23_20150806_20150807192201.nc 14.8 MB 2015-08-06 - 2015-08-07 66.04N To 64.51N147.54W To 166.49W
carve_DADS_L1_b23_20150808_20150809173231.nc 12.2 MB 2015-08-08 - 2015-08-09 69.52N To 64.82N132.24W To 147.85W
carve_DADS_L1_b23_20150811_20150812045224.nc 7.5 MB 2015-08-11 67.03N To 64.80N143.11W To 149.41W
carve_DADS_L1_b23_20150812_20150813183658.nc 14.7 MB 2015-08-12 - 2015-08-13 71.30N To 64.80N147.57W To 157.54W
carve_DADS_L1_b23_20150813_20150814182311.nc 16.9 MB 2015-08-13 - 2015-08-14 69.53N To 64.75N132.27W To 148.11W
carve_DADS_L1_b23_20150814_20150815145455.nc 14.6 MB 2015-08-14 - 2015-08-15 65.03N To 62.98N147.57W To 160.83W
carve_DADS_L1_b23_20150815_20150817024052.nc 7.5 MB 2015-08-15 67.03N To 64.79N143.61W To 149.12W
carve_DADS_L1_b23_20150903_20150904180537.nc 7.5 MB 2015-09-03 67.02N To 64.79N143.71W To 149.17W
carve_DADS_L1_b23_20150904_20150905174511.nc 14.0 MB 2015-09-04 - 2015-09-05 66.89N To 64.62N147.58W To 162.69W
carve_DADS_L1_b23_20150905_20150906170452.nc 7.5 MB 2015-09-05 69.69N To 64.79N147.58W To 149.80W
carve_DADS_L1_b23_20150906_20150907155447.nc 7.0 MB 2015-09-06 66.70N To 64.61N147.58W To 157.06W
carve_DADS_L1_b23_20150907_20150909033427.nc 7.6 MB 2015-09-07 67.06N To 64.77N143.72W To 149.15W
carve_DADS_L1_b23_20150908_20150909180557.nc 11.1 MB 2015-09-08 66.60N To 64.54N147.58W To 165.26W
carve_DADS_L1_b23_20150915_20150916160037.nc 17.7 MB 2015-09-15 - 2015-09-16 64.93N To 62.99N147.61W To 160.85W
carve_DADS_L1_b23_20151005_20151006154603.nc 9.8 MB 2015-10-05 64.90N To 62.72N147.80W To 155.61W
carve_DADS_L1_b23_20151006_20151007140252.nc 7.5 MB 2015-10-06 65.01N To 62.63N141.57W To 147.94W
carve_DADS_L1_b23_20151007_20151008170014.nc 13.6 MB 2015-10-07 - 2015-10-08 64.92N To 60.33N147.62W To 164.21W
carve_DADS_L1_b23_20151008_20151009201104.nc 13.2 MB 2015-10-08 - 2015-10-09 65.03N To 62.98N147.57W To 160.84W
carve_DADS_L1_b23_20151009_20151010170507.nc 11.3 MB 2015-10-09 69.10N To 64.77N133.08W To 147.92W
carve_DADS_L1_b23_20151011_20151012053024.nc 6.5 MB 2015-10-11 66.66N To 64.79N143.70W To 149.04W
carve_DADS_L1_b23_20151012_20151013161000.nc 13.8 MB 2015-10-12 - 2015-10-13 70.48N To 64.81N147.59W To 157.52W
carve_DADS_L1_b23_20151014_20151015162729.nc 14.8 MB 2015-10-14 - 2015-10-15 65.03N To 60.30N147.58W To 164.66W
carve_DADS_L1_b23_20151015_20151016155112.nc 13.6 MB 2015-10-15 - 2015-10-16 67.03N To 62.97N143.70W To 154.42W
carve_DADS_L1_b23_20151016_20151017163242.nc 13.0 MB 2015-10-16 - 2015-10-17 70.47N To 64.79N147.58W To 157.49W
carve_DADS_L1_b23_20151103_20151104185608.nc 12.1 MB 2015-11-03 - 2015-11-04 70.21N To 64.79N147.62W To 151.88W
carve_DADS_L1_b23_20151105_20151107025050.nc 13.2 MB 2015-11-05 - 2015-11-06 70.55N To 64.80N147.27W To 157.59W
carve_DADS_L1_b23_20151110_20151111155852.nc 7.4 MB 2015-11-10 65.05N To 63.60N143.99W To 152.17W
carve_DADS_L1_b23_20151112_20151113184127.nc 13.1 MB 2015-11-12 - 2015-11-13 67.03N To 62.98N143.70W To 154.96W

Advanced Data Access through THREDDS Data Sever

Download Statistics

Files related to this data set have been downloaded on 4 occasions since 2017-02-27, totaling 193 files.